Home > Products > Valid Products > TAF

000
FTUS41 KPHI 292300
TAFMIV
TAF
KMIV 292335Z 3000/3024 00000KT P6SM SCT250
     FM300800 00000KT 4SM BR FEW020
     FM301400 16004KT P6SM FEW030
     FM301800 18006KT P6SM SCT050=



000
FTUS41 KPHI 292300
TAFPNE
TAF
KPNE 292335Z 3000/3024 13003KT P6SM SCT250
      TEMPO 3011/3013 SCT020
     FM301300 17005KT P6SM FEW030
     FM301800 20007KT P6SM SCT050
      TEMPO 3018/3019 BKN050=



000
FTUS41 KPHI 292300
TAFPHL
TAF
KPHL 292335Z 3000/3106 15004KT P6SM SCT250
      TEMPO 3010/3012 SCT020
     FM301300 18006KT P6SM FEW030
     FM301800 19008KT P6SM SCT050
      TEMPO 3018/3019 BKN050
     FM310500 19006KT 6SM BR SCT050=



000
FTUS41 KPHI 292300
TAFILG
TAF
KILG 292335Z 3000/3024 00000KT P6SM SCT250
      TEMPO 3010/3012 5SM BR
     FM301300 16005KT P6SM FEW030
     FM301800 17009KT P6SM SCT050
      TEMPO 3018/3019 BKN050=



000
FTUS41 KPHI 292300
TAFRDG
TAF
KRDG 292335Z 3000/3024 16003KT P6SM SCT250
     FM300700 00000KT 5SM BR SCT250
      TEMPO 3009/3012 3SM BR
     FM301300 18005KT P6SM SCT040
     FM301800 19008KT P6SM SCT050
      TEMPO 3018/3020 BKN050=



000
FTUS41 KPHI 292300
TAFACY
TAF
KACY 292335Z 3000/3024 12004KT P6SM SCT250
     FM300800 00000KT 4SM BR SCT020
      TEMPO 3009/3013 BKN020
     FM301400 17005KT P6SM SCT025
     FM301800 17009KT P6SM FEW050=



000
FTUS41 KPHI 292300
TAFTTN
TAF
KTTN 292335Z 3000/3024 15005KT P6SM SCT250
      TEMPO 3011/3013 SCT020
     FM301300 19006KT P6SM FEW030
     FM301800 21008KT P6SM SCT050
      TEMPO 3018/3019 BKN050=



000
FTUS41 KPHI 292300
TAFABE
TAF
KABE 292335Z 3000/3024 12003KT P6SM SCT250
     FM300700 12004KT 5SM BR SCT250
      TEMPO 3009/3012 3SM BR
     FM301400 16006KT P6SM FEW040
     FM301800 19008KT P6SM SCT050
      TEMPO 3018/3022 BKN050=



000
FTUS41 KPHI 292100 AAA
TAFPHL
TAF AMD
KPHL 292117Z 2921/3024 14005KT P6SM FEW060 BKN250
      TEMPO 3010/3012 5SM BR
     FM301400 18007KT P6SM SCT050
      TEMPO 3018/3022 BKN050=



000
FTUS41 KPHI 291700
TAFTTN
TAF
KTTN 291723Z 2918/3018 02004KT P6SM SCT250
     FM292200 15004KT P6SM SCT250
     FM301300 19006KT P6SM FEW040=



000
FTUS41 KPHI 291700
TAFABE
TAF
KABE 291723Z 2918/3018 VRB03KT P6SM SCT250
     FM300600 12004KT 5SM BR SCT250
     FM301400 16006KT P6SM FEW040=



000
FTUS41 KPHI 291700
TAFPNE
TAF
KPNE 291723Z 2918/3018 06007KT P6SM SCT250
     FM292000 11004KT P6SM SCT250
     FM301300 17005KT P6SM FEW040=



000
FTUS41 KPHI 291700
TAFILG
TAF
KILG 291723Z 2918/3018 11005KT P6SM SCT250
     FM301400 16008KT P6SM FEW040=



000
FTUS41 KPHI 291700
TAFACY
TAF
KACY 291723Z 2918/3018 10006KT P6SM BKN050
     FM300300 15003KT P6SM FEW250
     FM300800 15003KT 4SM BR SKC
     FM301400 17007KT P6SM FEW030=



000
FTUS41 KPHI 291700
TAFPHL
TAF
KPHL 291723Z 2918/3024 11006KT P6SM SCT250
     FM301400 18007KT P6SM SCT040=



000
FTUS41 KPHI 291700
TAFMIV
TAF
KMIV 291723Z 2918/3018 03004KT P6SM SCT050
     FM292000 12004KT P6SM FEW050
     FM300000 VRB03KT P6SM FEW250
     FM300800 VRB02KT 4SM BR SKC
     FM301400 16005KT P6SM FEW050=



000
FTUS41 KPHI 291700
TAFRDG
TAF
KRDG 291723Z 2918/3018 VRB03KT P6SM SCT250
     FM300600 15002KT 5SM BR SCT250
     FM301300 17005KT P6SM SCT040=



000
FTUS41 KPHI 291400 AAA
TAFPHL
TAF AMD
KPHL 291436Z 2915/3018 04006KT P6SM SCT250
     FM291800 09006KT P6SM SCT250
     FM292000 15006KT P6SM SCT250=



000
FTUS41 KPHI 291100
TAFRDG
TAF
KRDG 291123Z 2912/3012 VRB03KT P6SM SCT250=



000
FTUS41 KPHI 291100
TAFTTN
TAF
KTTN 291123Z 2912/3012 36004KT P6SM SCT250
     FM291400 05004KT P6SM SCT250
     FM291700 10004KT P6SM SCT250
     FM292000 15004KT P6SM SCT250=



000
FTUS41 KPHI 291100
TAFPHL
TAF
KPHL 291123Z 2912/3018 36006KT P6SM SCT250
     FM291400 04006KT P6SM SCT250
     FM291700 09006KT P6SM SCT250
     FM292000 15006KT P6SM SCT250=



000
FTUS41 KPHI 291100
TAFACY
TAF
KACY 291123Z 2912/3012 36006KT P6SM SCT250
     FM291400 04006KT P6SM SCT250
     FM291600 09006KT P6SM SCT250
     FM291800 12006KT P6SM SCT250
     FM300200 VRB03KT P6SM SCT250=



000
FTUS41 KPHI 291100
TAFPNE
TAF
KPNE 291123Z 2912/3012 36006KT P6SM SCT250
     FM291400 05004KT P6SM SCT250
     FM291700 09004KT P6SM SCT250
     FM292000 14004KT P6SM SCT250=



000
FTUS41 KPHI 291100
TAFILG
TAF
KILG 291123Z 2912/3012 01006KT P6SM SCT250
     FM291400 05006KT P6SM SCT250
     FM291700 11006KT P6SM SCT250
     FM291900 16008KT P6SM SCT250
     FM300200 13004KT P6SM SCT250=



000
FTUS41 KPHI 291100
TAFMIV
TAF
KMIV 291123Z 2912/3012 VRB03KT P6SM SCT250
     FM291400 04004KT P6SM SCT250
     FM291700 08004KT P6SM SCT250
     FM291900 12004KT P6SM SCT250
     FM300200 VRB03KT P6SM SCT250=



000
FTUS41 KPHI 291100
TAFABE
TAF
KABE 291123Z 2912/3012 VRB03KT P6SM SCT250
     FM292000 17004KT P6SM SCT250=



000
FTUS41 KPHI 290900 AAA
TAFPHL
TAF AMD
KPHL 290901Z 2909/3012 36006KT P6SM SCT250
     FM291300 04006KT P6SM SCT250
     FM291600 09006KT P6SM SCT250
     FM292000 15006KT P6SM SCT250=



000
FTUS41 KPHI 290500
TAFABE
TAF
KABE 290528Z 2906/3006 VRB03KT P6SM SCT250
     FM292000 17004KT P6SM SCT250=



000
FTUS41 KPHI 290500
TAFRDG
TAF
KRDG 290528Z 2906/3006 VRB03KT P6SM SCT250=



000
FTUS41 KPHI 290500
TAFPNE
TAF
KPNE 290528Z 2906/3006 36006KT P6SM SCT250
     FM291300 05004KT P6SM SCT250
     FM291600 09004KT P6SM SCT250
     FM292000 14004KT P6SM SCT250=



000
FTUS41 KPHI 290500
TAFPHL
TAF
KPHL 290528Z 2906/3012 36006KT P6SM SCT250
     FM291300 04006KT P6SM SCT250
     FM291600 09006KT P6SM SCT250
     FM292000 15006KT P6SM SCT250=



000
FTUS41 KPHI 290500
TAFTTN
TAF
KTTN 290528Z 2906/3006 36004KT P6SM SCT250
     FM291300 05004KT P6SM SCT250
     FM291600 10004KT P6SM SCT250
     FM292000 15004KT P6SM SCT250=



000
FTUS41 KPHI 290500
TAFMIV
TAF
KMIV 290528Z 2906/3006 VRB03KT P6SM SCT250
     FM291300 04004KT P6SM SCT250
     FM291600 08004KT P6SM SCT250
     FM291900 12004KT P6SM SCT250=



000
FTUS41 KPHI 290500
TAFACY
TAF
KACY 290528Z 2906/3006 36006KT P6SM SCT250
     FM291300 04006KT P6SM SCT250
     FM291600 09006KT P6SM SCT250
     FM291800 12006KT P6SM SCT250=



000
FTUS41 KPHI 290500
TAFILG
TAF
KILG 290528Z 2906/3006 01006KT P6SM SCT250
     FM291300 05006KT P6SM SCT250
     FM291600 12006KT P6SM SCT250
     FM291900 16008KT P6SM SCT250=



000
FTUS41 KPHI 282300
TAFILG
TAF
KILG 282324Z 2900/2924 33009KT P6SM SKC
     FM290600 36006KT P6SM SKC
     FM291500 04005KT P6SM FEW250
     FM292100 13008KT P6SM FEW250=



000
FTUS41 KPHI 282300
TAFPNE
TAF
KPNE 282324Z 2900/2924 34010KT P6SM SKC
     FM290400 35008KT P6SM SKC
     FM291400 03005KT P6SM FEW250
     FM292100 13005KT P6SM SCT250=



000
FTUS41 KPHI 282300
TAFMIV
TAF
KMIV 282324Z 2900/2924 32003KT P6SM SKC
     FM291400 03003KT P6SM FEW250
     FM291900 12005KT P6SM FEW030=



000
FTUS41 KPHI 282300
TAFRDG
TAF
KRDG 282324Z 2900/2924 33008KT P6SM SKC
     FM290200 34003KT P6SM SKC
     FM291400 02003KT P6SM FEW250
     FM292100 18005KT P6SM FEW250=



000
FTUS41 KPHI 282300
TAFACY
TAF
KACY 282324Z 2900/2924 33005KT P6SM SKC
     FM290700 35004KT P6SM SKC
     FM291400 03006KT P6SM FEW250
     FM291800 09008KT P6SM SCT030=



000
FTUS41 KPHI 282300
TAFPHL
TAF
KPHL 282324Z 2900/3006 32011KT P6SM FEW060
     FM290400 35006KT P6SM SKC
     FM291400 04005KT P6SM FEW250
     FM292100 14006KT P6SM FEW250=



000
FTUS41 KPHI 282300
TAFABE
TAF
KABE 282324Z 2900/2924 34006KT P6SM SKC
     FM290200 34003KT P6SM SKC
     FM291400 03003KT P6SM FEW250
     FM292100 18005KT P6SM FEW250=



000
FTUS41 KPHI 282300
TAFTTN
TAF
KTTN 282324Z 2900/2924 34004KT P6SM SKC
     FM290400 01004KT P6SM SKC
     FM291400 04005KT P6SM FEW250
     FM292100 18005KT P6SM FEW250=



000
FTUS41 KPHI 282100 AAA
TAFPHL
TAF AMD
KPHL 282124Z 2821/2924 32011G18KT P6SM FEW060 FEW250
     FM282300 32010KT P6SM SKC
     FM290400 35006KT P6SM SKC
     FM291400 04005KT P6SM SKC
     FM291800 10004KT P6SM SKC
     FM292100 15006KT P6SM SCT050=



000
FTUS41 KPHI 281700
TAFACY
TAF
KACY 281735Z 2818/2918 30010G18KT P6SM SKC
     FM282300 31008KT P6SM SKC
     FM290400 35004KT P6SM SKC
     FM291400 04006KT P6SM SKC
     FM291700 09007KT P6SM SKC=



000
FTUS41 KPHI 281700
TAFILG
TAF
KILG 281735Z 2818/2918 33012G19KT P6SM SKC
     FM282300 33008KT P6SM SKC
     FM290600 36006KT P6SM SKC
     FM291500 05005KT P6SM SKC=



000
FTUS41 KPHI 281700
TAFPHL
TAF
KPHL 281735Z 2818/2924 33011G20KT P6SM FEW050 FEW250
     FM282200 32010KT P6SM SKC
     FM290400 35006KT P6SM SKC
     FM291400 04005KT P6SM SKC
     FM291800 10004KT P6SM SKC
     FM292100 15006KT P6SM SCT050=



000
FTUS41 KPHI 281700
TAFPNE
TAF
KPNE 281735Z 2818/2918 33011G19KT P6SM SKC
     FM282300 34008KT P6SM SKC
     FM290400 35004KT P6SM SKC
     FM291400 03005KT P6SM SKC=



000
FTUS41 KPHI 281700
TAFABE
TAF
KABE 281735Z 2818/2918 33011G20KT P6SM FEW045
     FM282200 34007KT P6SM SKC
     FM290200 VRB03KT P6SM SKC=



000
FTUS41 KPHI 281700
TAFMIV
TAF
KMIV 281735Z 2818/2918 31011G18KT P6SM SKC
     FM282200 32009KT P6SM SKC
     FM290000 VRB04KT P6SM SKC=



000
FTUS41 KPHI 281700
TAFTTN
TAF
KTTN 281735Z 2818/2918 33010G17KT P6SM SKC
     FM282300 33008KT P6SM SKC
     FM290400 36004KT P6SM SKC
     FM291400 04005KT P6SM SKC=



000
FTUS41 KPHI 281700
TAFRDG
TAF
KRDG 281735Z 2818/2918 32013G20KT P6SM BKN040
     FM281900 32011G18KT P6SM SCT040
     FM282300 32007KT P6SM SKC
     FM290200 VRB03KT P6SM SKC=



000
FTUS41 KPHI 281600 AAA
TAFABE
TAF AMD
KABE 281619Z 2816/2912 33011G18KT P6SM FEW050
     FM282300 33006KT P6SM SKC
     FM290300 VRB03KT P6SM SCT250=



000
FTUS41 KPHI 281500 AAA
TAFPHL
TAF AMD
KPHL 281501Z 2815/2918 33012G20KT P6SM FEW250
     FM282200 32010KT P6SM SKC
     FM290400 35006KT P6SM SCT250
     FM291400 04006KT P6SM SCT250=



000
FTUS41 KPHI 281100
TAFACY
TAF
KACY 281132Z 2812/2912 34011KT P6SM FEW050
     FM281300 32012G20KT P6SM SKC
     FM282300 31008KT P6SM SKC
     FM290400 35006KT P6SM SCT250=



000
FTUS41 KPHI 281100
TAFILG
TAF
KILG 281132Z 2812/2912 34009KT P6SM SKC
     FM281400 32012G20KT P6SM SKC
     FM282300 32008KT P6SM SKC
     FM290400 35006KT P6SM SCT250=



000
FTUS41 KPHI 281100
TAFMIV
TAF
KMIV 281132Z 2812/2912 33009KT P6SM FEW050
     FM281400 32009G17KT P6SM SKC
     FM282300 32006KT P6SM SKC
     FM290400 VRB03KT P6SM SCT250=



000
FTUS41 KPHI 281100
TAFPHL
TAF
KPHL 281132Z 2812/2918 33012G20KT P6SM SKC
     FM282300 32010KT P6SM SKC
     FM290400 35006KT P6SM SCT250
     FM291400 04006KT P6SM SCT250=



000
FTUS41 KPHI 281100
TAFPNE
TAF
KPNE 281132Z 2812/2912 34009KT P6SM SKC
     FM281400 33012G20KT P6SM SKC
     FM282300 32008KT P6SM SKC
     FM290400 35004KT P6SM SCT250=



000
FTUS41 KPHI 281100
TAFABE
TAF
KABE 281132Z 2812/2912 34008KT P6SM SKC
     FM281400 32010G18KT P6SM FEW050
     FM282300 33006KT P6SM SKC
     FM290300 VRB03KT P6SM SCT250=



000
FTUS41 KPHI 281100
TAFRDG
TAF
KRDG 281132Z 2812/2912 33010G18KT P6SM FEW050
     FM282300 32006KT P6SM SKC
     FM290300 VRB03KT P6SM SCT250=



000
FTUS41 KPHI 281100
TAFTTN
TAF
KTTN 281132Z 2812/2912 35010KT P6SM SKC
     FM281400 33010G18KT P6SM SKC
     FM282300 33006KT P6SM SKC
     FM290400 36004KT P6SM SCT250=



000
FTUS41 KPHI 280900 AAA
TAFPHL
TAF AMD
KPHL 280900Z 2809/2912 34008KT P6SM SCT045
     FM281200 32012G20KT P6SM SKC
     FM282300 32010KT P6SM SKC
     FM290400 35006KT P6SM SCT250=



000
FTUS41 KPHI 280500
TAFPHL
TAF
KPHL 280533Z 2806/2912 33008KT P6SM SCT045
     FM281200 32012G20KT P6SM SKC
     FM282300 32010KT P6SM SKC
     FM290400 35006KT P6SM SCT250=



000
FTUS41 KPHI 280500
TAFTTN
TAF
KTTN 280533Z 2806/2906 34006KT P6SM SCT045
     FM281300 33010G18KT P6SM SKC
     FM282300 33006KT P6SM SKC
     FM290400 36004KT P6SM SCT250=



000
FTUS41 KPHI 280500
TAFRDG
TAF
KRDG 280533Z 2806/2906 33006KT P6SM SCT045
     FM281300 32010G18KT P6SM SKC
     FM282300 32006KT P6SM SKC
     FM290300 VRB03KT P6SM SCT250=



000
FTUS41 KPHI 280500
TAFPNE
TAF
KPNE 280533Z 2806/2906 33008KT P6SM SCT045
     FM281200 32012G20KT P6SM SKC
     FM282300 32008KT P6SM SKC
     FM290400 35004KT P6SM SCT250=



000
FTUS41 KPHI 280500
TAFACY
TAF
KACY 280533Z 2806/2906 28006KT P6SM SCT250
     FM280700 33008KT P6SM SCT045
     FM281200 32012G20KT P6SM SKC
     FM282300 31008KT P6SM SKC
     FM290400 35006KT P6SM SCT250=



000
FTUS41 KPHI 280500
TAFILG
TAF
KILG 280533Z 2806/2906 33008KT P6SM SCT045
     FM281200 32012G20KT P6SM SKC
     FM282300 32008KT P6SM SKC
     FM290400 35006KT P6SM SCT250=



000
FTUS41 KPHI 280500
TAFMIV
TAF
KMIV 280533Z 2806/2906 28004KT P6SM SCT250
     FM280700 33006KT P6SM SCT045
     FM281300 31008G16KT P6SM SKC
     FM282300 32006KT P6SM SKC
     FM290400 VRB03KT P6SM SCT250=



000
FTUS41 KPHI 280500
TAFABE
TAF
KABE 280533Z 2806/2906 32006KT P6SM SCT045
     FM281300 32010G18KT P6SM SKC
     FM282300 33006KT P6SM SKC
     FM290300 VRB03KT P6SM SCT250=



000
FTUS41 KPHI 280200 AAA
TAFABE
TAF AMD
KABE 280255Z 2803/2824 33004KT P6SM BKN050
      TEMPO 2803/2804 -SHRA
     FM280600 33006KT P6SM SCT050
     FM281400 31009G17KT P6SM FEW040=



000
FTUS41 KPHI 280000 AAA
TAFACY
TAF AMD
KACY 280042Z 2801/2824 22005KT P6SM SKC
     FM280800 28004KT P6SM BKN050
     FM281200 31006KT P6SM FEW050
     FM281400 33010KT P6SM SKC
     FM281800 33012G20KT P6SM FEW040=



000
FTUS41 KPHI 272300
TAFRDG
TAF
KRDG 272320Z 2800/2824 27006KT P6SM SCT050
     FM280300 31004KT P6SM BKN050
     FM280500 34006KT P6SM SCT050
     FM281400 33009G18KT P6SM FEW040=



000
FTUS41 KPHI 272300
TAFPHL
TAF
KPHL 272320Z 2800/2906 23008KT P6SM FEW060
     FM280500 30006KT P6SM BKN050
     FM280700 34009KT P6SM SCT050
     FM281400 32012KT P6SM SKC
     FM281800 32012G20KT P6SM FEW040
     FM282300 31008KT P6SM SKC=



000
FTUS41 KPHI 272300
TAFABE
TAF
KABE 272320Z 2800/2824 25006KT P6SM SCT050
     FM280300 30004KT P6SM BKN050
     FM280600 33006KT P6SM SCT050
     FM281400 31009G17KT P6SM FEW040=



000
FTUS41 KPHI 272300
TAFACY
TAF
KACY 272320Z 2800/2824 VRB05KT P6SM SKC
     FM280800 28004KT P6SM BKN050
     FM281200 31006KT P6SM FEW050
     FM281400 33010KT P6SM SKC
     FM281800 33012G20KT P6SM FEW040=



000
FTUS41 KPHI 272300
TAFMIV
TAF
KMIV 272320Z 2800/2824 24004KT P6SM FEW050
     FM280700 28003KT P6SM BKN050
     FM281000 32006KT P6SM FEW050
     FM281400 33010KT P6SM SKC
     FM281800 33011G18KT P6SM FEW040=



000
FTUS41 KPHI 272300
TAFPNE
TAF
KPNE 272320Z 2800/2824 25007KT P6SM SCT050
     FM280500 30005KT P6SM BKN050
     FM280700 34008KT P6SM FEW050
     FM281300 32011KT P6SM SKC
     FM281700 32012G20KT P6SM FEW040=



000
FTUS41 KPHI 272300
TAFILG
TAF
KILG 272320Z 2800/2824 23007KT P6SM FEW050
     FM280500 28005KT P6SM BKN050
     FM280800 33009KT P6SM FEW050
     FM281400 34010KT P6SM SKC
     FM281800 34012G20KT P6SM FEW040=



000
FTUS41 KPHI 272300
TAFTTN
TAF
KTTN 272320Z 2800/2824 25006KT P6SM SCT050
     FM280500 27004KT P6SM BKN050
     FM280700 34008KT P6SM SCT050
     FM281300 33011KT P6SM SKC
     FM281700 32012G20KT P6SM FEW040=



000
FTUS41 KPHI 272000 AAA
TAFPHL
TAF AMD
KPHL 272055Z 2721/2824 24008KT P6SM FEW060
     FM280500 30006KT P6SM BKN050
     FM280700 34009KT P6SM FEW050
     FM281400 32012G18KT P6SM SKC=



000
FTUS41 KPHI 271700
TAFPNE
TAF
KPNE 271739Z 2718/2818 23006KT P6SM FEW050
     FM272100 26007KT P6SM SCT050
     FM280500 30005KT P6SM BKN050
     FM280700 34008KT P6SM FEW050
     FM281400 32010G17KT P6SM SKC=



000
FTUS41 KPHI 271700
TAFACY
TAF
KACY 271739Z 2718/2818 VRB05KT P6SM SKC
     FM280800 28004KT P6SM BKN050
     FM281200 31006KT P6SM FEW050
     FM281500 33010KT P6SM SKC=



000
FTUS41 KPHI 271700
TAFILG
TAF
KILG 271739Z 2718/2818 23007KT P6SM FEW050
     FM280500 28005KT P6SM BKN050
     FM280800 33009KT P6SM FEW050
     FM281500 32010KT P6SM SKC=



000
FTUS41 KPHI 271700
TAFABE
TAF
KABE 271739Z 2718/2818 26006KT P6SM SCT050
     FM272100 27006KT P6SM BKN050
     FM280300 30004KT P6SM BKN050
     FM280600 33006KT P6SM SCT050
     FM281400 31009G17KT P6SM SKC=



000
FTUS41 KPHI 271700
TAFPHL
TAF
KPHL 271739Z 2718/2824 25009KT P6SM FEW050
     FM280500 30005KT P6SM BKN050
     FM280700 34009KT P6SM FEW050
     FM281400 32012G18KT P6SM SKC=



000
FTUS41 KPHI 271700
TAFTTN
TAF
KTTN 271739Z 2718/2818 21006KT P6SM FEW050
     FM272000 25006KT P6SM SCT050
     FM280300 27004KT P6SM BKN050
     FM280500 32005KT P6SM BKN050
     FM280700 35008KT P6SM FEW050
     FM281400 31010G17KT P6SM SKC=



000
FTUS41 KPHI 271700
TAFRDG
TAF
KRDG 271739Z 2718/2818 23007KT P6SM BKN060
     FM272300 26006KT P6SM BKN050
     FM280300 31004KT P6SM BKN050
     FM280500 34006KT P6SM FEW050
     FM281400 33009G17KT P6SM SKC=



000
FTUS41 KPHI 271700
TAFMIV
TAF
KMIV 271739Z 2718/2818 24004KT P6SM FEW050
     FM280700 28003KT P6SM BKN050
     FM281000 32006KT P6SM FEW050
     FM281500 33010KT P6SM SKC=



000
FTUS41 KPHI 271500 AAA
TAFPHL
TAF AMD
KPHL 271505Z 2715/2818 24006KT P6SM FEW250
     FM271900 23009KT P6SM SCT250
     FM280200 25005KT P6SM BKN050
     FM280500 30006KT P6SM SCT050
     FM280700 34008KT P6SM SCT050
     FM281300 33010G18KT P6SM SKC=



000
FTUS41 KPHI 271100
TAFRDG
TAF
KRDG 271129Z 2712/2812 VRB03KT P6SM SKC
     FM271600 23006KT P6SM SCT050
     FM272100 26006KT P6SM BKN050 PROB30 2800/2802 4SM -SHRA BR
      OVC030
     FM280300 31004KT P6SM BKN050
     FM280600 34006KT P6SM SCT050=



000
FTUS41 KPHI 271100
TAFILG
TAF
KILG 271129Z 2712/2812 VRB03KT P6SM SKC
     FM271500 21007KT P6SM SCT250
     FM280300 24006KT P6SM BKN050
     FM280500 30006KT P6SM BKN050
     FM280700 33008KT P6SM SCT050=



000
FTUS41 KPHI 271100
TAFTTN
TAF
KTTN 271129Z 2712/2812 23006KT P6SM SKC
     FM280000 26004KT P6SM BKN050
     FM280500 32006KT P6SM BKN050
     FM280700 35006KT P6SM SCT050=



000
FTUS41 KPHI 271100
TAFPHL
TAF
KPHL 271129Z 2712/2818 23004KT P6SM FEW250
     FM271600 23008KT P6SM SCT250
     FM280300 25005KT P6SM BKN050
     FM280500 30006KT P6SM BKN050
     FM280700 34008KT P6SM SCT050
     FM281300 33010G18KT P6SM SKC=



000
FTUS41 KPHI 271100
TAFPNE
TAF
KPNE 271129Z 2712/2812 VRB03KT P6SM SKC
     FM271500 23006KT P6SM SCT250
     FM280200 26006KT P6SM BKN050
     FM280500 31006KT P6SM BKN050
     FM280700 34008KT P6SM SCT050=



000
FTUS41 KPHI 271100
TAFMIV
TAF
KMIV 271129Z 2712/2812 24004KT P6SM SCT250
     FM280400 VRB03KT 4SM BR BKN050
     FM280900 32006KT P6SM SCT050=



000
FTUS41 KPHI 271100
TAFABE
TAF
KABE 271129Z 2712/2812 26004KT P6SM SKC
     FM271600 22006KT P6SM SCT050
     FM272200 25006KT P6SM BKN050 PROB30 2800/2803 4SM -SHRA BR
      OVC030
     FM280300 30004KT P6SM BKN050
     FM280600 33006KT P6SM SCT050=



000
FTUS41 KPHI 271100
TAFACY
TAF
KACY 271129Z 2712/2812 18004KT P6SM SCT250
     FM271800 15007KT P6SM SCT250
     FM280400 VRB03KT P6SM BKN050
     FM280900 32008KT P6SM SCT050=



000
FTUS41 KPHI 271000 AAB
TAFMIV
TAF AMD
KMIV 271026Z 2710/2806 00000KT P6SM SCT002
      TEMPO 2710/2712 1SM BR VV002
     FM271300 24004KT P6SM SCT250
     FM280400 VRB03KT P6SM BKN050=



000
FTUS41 KPHI 271000 AAB
TAFMIV
TAF AMD
KMIV 271026Z 2710/2806 00000KT P6SM SCT002
      TEMPO 2710/2712 1SM BR VV002
     FM271300 24004KT P6SM SCT250
     FM280400 VRB03KT P6SM BKN050=



000
FTUS41 KPHI 270900 AAA
TAFMIV
TAF AMD
KMIV 270933Z 2710/2806 00000KT 4SM BR BKN002
      TEMPO 2710/2712 3/4SM BR VV001
     FM271300 24004KT P6SM SCT250
     FM280400 VRB03KT P6SM BKN050=



000
FTUS41 KPHI 270900 AAA
TAFPHL
TAF AMD
KPHL 270901Z 2709/2812 VRB03KT P6SM SKC
     FM271300 22006KT P6SM SCT250
     FM280300 25006KT P6SM BKN050
     FM280500 30006KT P6SM BKN050
     FM280700 34008KT P6SM SCT050=



000
FTUS41 KPHI 270500
TAFACY
TAF
KACY 270539Z 2706/2806 VRB03KT P6SM SKC
     FM271300 19004KT P6SM SCT250
     FM271800 15006KT P6SM SCT250
     FM280400 VRB03KT P6SM BKN050=



000
FTUS41 KPHI 270500
TAFABE
TAF
KABE 270539Z 2706/2806 VRB03KT P6SM SKC
      TEMPO 2709/2712 4SM BR
     FM271300 22006KT P6SM SCT050
     FM272000 25006KT P6SM BKN050 PROB30 2800/2802 4SM -SHRA BR
      OVC030
     FM280300 32006KT P6SM BKN050=



000
FTUS41 KPHI 270500
TAFMIV
TAF
KMIV 270539Z 2706/2806 VRB03KT P6SM SKC
      TEMPO 2708/2712 3SM BR
     FM271300 24004KT P6SM SCT250
     FM280400 VRB03KT P6SM BKN050=



000
FTUS41 KPHI 270500
TAFRDG
TAF
KRDG 270539Z 2706/2806 VRB03KT P6SM SKC
      TEMPO 2709/2712 3SM BR
     FM271300 23006KT P6SM SCT050
     FM272000 26006KT P6SM BKN050 PROB30 2800/2802 4SM -SHRA BR
      OVC030
     FM280300 32006KT P6SM BKN050=



000
FTUS41 KPHI 270500
TAFPHL
TAF
KPHL 270539Z 2706/2812 VRB03KT P6SM SKC
     FM271300 22006KT P6SM SCT250
     FM280300 25006KT P6SM BKN050
     FM280500 30006KT P6SM BKN050
     FM280700 34008KT P6SM SCT050=



000
FTUS41 KPHI 270500
TAFILG
TAF
KILG 270539Z 2706/2806 VRB03KT P6SM SKC
     FM271300 21006KT P6SM SCT250
     FM280300 24006KT P6SM BKN050
     FM280500 30006KT P6SM BKN050=



000
FTUS41 KPHI 270500
TAFPNE
TAF
KPNE 270539Z 2706/2806 VRB03KT P6SM SKC
     FM271300 23006KT P6SM SCT250
     FM280200 26006KT P6SM BKN050
     FM280500 31006KT P6SM BKN050=



000
FTUS41 KPHI 270500
TAFTTN
TAF
KTTN 270539Z 2706/2806 VRB03KT P6SM SKC
     FM271300 23006KT P6SM SCT250
     FM280000 26004KT P6SM BKN050
     FM280500 32006KT P6SM BKN050=



    US Dept of Commerce
    National Oceanic and Atmospheric Administration
    National Weather Service
    1325 East West Highway
    Silver Spring, MD 20910
    Page Author: NWS Internet Services Team
Disclaimer
Information Quality
Credits
Glossary
Privacy Policy
Freedom of Information Act (FOIA)
About Us
Career Opportunities